Time;durP1;ratioP1;P1;durP2;ratioP2;P2;SDS_P1;SDS_P2;PMS_P1;PMS_P2;Temp;Humidity;BMP_temperature;BMP_pressure;BME280_temperature;BME280_humidity;BME280_pressure;Samples;Min_cycle;Max_cycle;Signal;HPM_P1;HPM_P2
2021/12/31 00:01:40;;;;;;;1.95;1.10;;;10.70;99.90;;;;;;5016597;28;20091;-81
2021/12/31 00:04:06;;;;;;;4.97;1.20;;;10.70;99.90;;;;;;5016889;28;20029;-82
2021/12/31 00:06:32;;;;;;;1.73;1.20;;;10.70;99.90;;;;;;5034047;28;20044;-82
2021/12/31 00:08:58;;;;;;;2.30;1.15;;;10.60;99.90;;;;;;5034191;28;20067;-82
2021/12/31 00:11:24;;;;;;;7.50;3.15;;;10.60;99.90;;;;;;5016376;28;20071;-81
2021/12/31 00:13:49;;;;;;;6.22;1.20;;;10.60;99.90;;;;;;5034148;28;20025;-81
2021/12/31 00:16:15;;;;;;;4.28;1.25;;;10.60;99.90;;;;;;5016455;28;20477;-81
2021/12/31 00:18:41;;;;;;;4.57;1.20;;;10.60;99.90;;;;;;5015942;28;20548;-82
2021/12/31 00:21:07;;;;;;;3.03;1.20;;;10.50;99.90;;;;;;5034073;28;20029;-81
2021/12/31 00:23:33;;;;;;;2.83;1.20;;;10.50;99.90;;;;;;5016271;28;20025;-81
2021/12/31 00:25:59;;;;;;;2.25;1.30;;;10.50;99.90;;;;;;5033934;28;20481;-81
2021/12/31 00:28:24;;;;;;;2.50;1.25;;;10.50;99.90;;;;;;5016095;28;20041;-81
2021/12/31 00:30:54;;;;;;;2.78;1.20;;;10.50;99.90;;;;;;5033869;28;20087;-82
2021/12/31 00:33:21;;;;;;;1.90;1.15;;;10.40;99.90;;;;;;5016358;28;20025;-81
2021/12/31 00:35:47;;;;;;;9.60;1.13;;;10.40;99.90;;;;;;5016091;28;20168;-81
2021/12/31 00:38:15;;;;;;;2.88;1.20;;;10.30;99.90;;;;;;5015979;28;20068;-81
2021/12/31 00:40:41;;;;;;;3.40;1.25;;;10.30;99.90;;;;;;5033700;28;20051;-82
2021/12/31 00:43:07;;;;;;;2.80;1.40;;;10.30;99.90;;;;;;5015888;28;20031;-81
2021/12/31 00:45:37;;;;;;;3.47;1.30;;;10.40;99.90;;;;;;5015903;28;20022;-81
2021/12/31 00:48:03;;;;;;;2.88;1.60;;;10.40;99.90;;;;;;5033483;28;20022;-81
2021/12/31 00:50:29;;;;;;;4.15;1.40;;;10.30;99.90;;;;;;5015762;28;20021;-81
2021/12/31 00:52:55;;;;;;;6.65;1.60;;;10.30;99.90;;;;;;5033494;28;20076;-81
2021/12/31 00:55:20;;;;;;;4.38;1.73;;;10.30;99.90;;;;;;5033699;28;20100;-81
2021/12/31 00:57:48;;;;;;;6.25;1.63;;;10.20;99.90;;;;;;5015662;28;20056;-81
2021/12/31 01:00:15;;;;;;;5.40;1.63;;;10.20;99.90;;;;;;5015745;28;20021;-81
2021/12/31 01:02:43;;;;;;;5.15;1.55;;;10.20;99.90;;;;;;5015657;28;20025;-81
2021/12/31 01:05:11;;;;;;;4.22;1.70;;;10.20;99.90;;;;;;5015349;28;20021;-81
2021/12/31 01:07:37;;;;;;;2.22;1.65;;;10.10;99.90;;;;;;5015559;28;20029;-81
2021/12/31 01:10:04;;;;;;;5.57;1.60;;;10.10;99.90;;;;;;5015502;28;20481;-82
2021/12/31 01:12:30;;;;;;;3.47;1.35;;;10.00;99.90;;;;;;5015496;28;20414;-81
2021/12/31 01:17:40;;;;;;;4.03;1.63;;;10.00;99.90;;;;;;5033177;28;20480;-81
2021/12/31 01:20:07;;;;;;;3.65;1.60;;;10.00;99.90;;;;;;5033467;28;20017;-81
2021/12/31 01:22:35;;;;;;;3.47;1.40;;;9.90;99.90;;;;;;5033108;28;20030;-81
2021/12/31 01:25:04;;;;;;;8.57;1.92;;;9.90;99.90;;;;;;5033089;28;20366;-82
2021/12/31 01:27:30;;;;;;;3.30;1.60;;;9.90;99.90;;;;;;5015629;28;20049;-82
2021/12/31 01:29:56;;;;;;;5.60;1.60;;;9.80;99.90;;;;;;5016111;28;20112;-81
2021/12/31 01:32:22;;;;;;;2.22;1.30;;;9.80;99.90;;;;;;5019169;28;20527;-81
2021/12/31 01:34:48;;;;;;;5.40;1.50;;;9.80;99.90;;;;;;5019431;28;20029;-81
2021/12/31 01:37:14;;;;;;;3.13;1.50;;;9.70;99.90;;;;;;5019412;28;20021;-81
2021/12/31 01:39:42;;;;;;;5.55;1.45;;;9.70;99.90;;;;;;5019581;28;20039;-81
2021/12/31 01:42:10;;;;;;;3.63;1.30;;;9.80;99.90;;;;;;5019297;28;20392;-81
2021/12/31 01:44:40;;;;;;;3.92;1.15;;;9.80;99.90;;;;;;5036975;28;20022;-82
2021/12/31 01:47:11;;;;;;;3.72;1.17;;;9.80;99.90;;;;;;5036934;28;20411;-82
2021/12/31 01:49:40;;;;;;;4.75;1.55;;;9.70;99.90;;;;;;5019094;28;20021;-81
2021/12/31 01:52:08;;;;;;;3.90;1.58;;;9.60;99.90;;;;;;5019030;28;20021;-81
2021/12/31 01:54:35;;;;;;;3.15;1.20;;;9.60;99.90;;;;;;5019037;28;20485;-82
2021/12/31 01:57:04;;;;;;;4.25;1.40;;;9.60;99.90;;;;;;5018918;28;20060;-81
2021/12/31 01:59:30;;;;;;;3.85;1.50;;;9.50;99.90;;;;;;5018959;28;20392;-82
2021/12/31 02:01:57;;;;;;;3.75;1.48;;;9.40;99.90;;;;;;5036700;28;20041;-82
2021/12/31 02:04:22;;;;;;;4.68;1.33;;;9.40;99.90;;;;;;5018873;28;20022;-82
2021/12/31 02:06:48;;;;;;;2.03;1.27;;;9.30;99.90;;;;;;5018653;28;20064;-81
2021/12/31 02:09:14;;;;;;;4.32;1.48;;;9.30;99.90;;;;;;5036751;28;20079;-81
2021/12/31 02:11:40;;;;;;;4.63;1.67;;;9.30;99.90;;;;;;5018724;28;20072;-81
2021/12/31 02:14:06;;;;;;;3.38;1.38;;;9.30;99.90;;;;;;5018643;28;20052;-82
2021/12/31 02:16:32;;;;;;;6.53;1.55;;;9.30;99.90;;;;;;5036389;28;20057;-82
2021/12/31 02:19:09;;;;;;;4.20;1.30;;;9.20;99.90;;;;;;5018580;28;20410;-82
2021/12/31 02:21:35;;;;;;;6.32;1.35;;;9.20;99.90;;;;;;5018544;28;20495;-82
2021/12/31 02:24:05;;;;;;;4.18;1.40;;;9.20;99.90;;;;;;5018818;28;20033;-82
2021/12/31 02:26:31;;;;;;;5.45;1.40;;;9.10;99.90;;;;;;5036253;28;20049;-81
2021/12/31 02:28:57;;;;;;;4.35;1.52;;;9.00;99.90;;;;;;5018266;28;20053;-81
2021/12/31 02:31:23;;;;;;;3.97;1.52;;;8.80;99.90;;;;;;5018390;28;20028;-82
2021/12/31 02:33:50;;;;;;;3.30;1.48;;;8.80;99.90;;;;;;5018346;28;20022;-82
2021/12/31 02:36:16;;;;;;;3.58;1.45;;;8.70;99.90;;;;;;5018380;28;20477;-82
2021/12/31 02:38:44;;;;;;;3.80;1.42;;;8.70;99.90;;;;;;5036245;28;20025;-82
2021/12/31 02:41:10;;;;;;;4.25;1.25;;;8.70;99.90;;;;;;5017913;28;20052;-81
2021/12/31 02:43:37;;;;;;;3.65;1.73;;;8.70;99.90;;;;;;5018123;28;20148;-81
2021/12/31 02:46:03;;;;;;;7.00;1.83;;;8.70;99.90;;;;;;5018061;28;20056;-81
2021/12/31 02:48:28;;;;;;;3.83;1.85;;;8.80;99.90;;;;;;5017978;28;20546;-81
2021/12/31 02:50:57;;;;;;;4.45;1.65;;;8.90;99.90;;;;;;5018034;28;20021;-82
2021/12/31 02:53:37;;;;;;;2.78;1.33;;;8.80;99.90;;;;;;5035948;28;20151;-81
2021/12/31 02:56:08;;;;;;;6.55;1.90;;;8.80;99.90;;;;;;5018062;28;20026;-82
2021/12/31 02:58:35;;;;;;;6.47;1.50;;;8.80;99.90;;;;;;5017845;28;20021;-82
2021/12/31 03:01:03;;;;;;;4.82;1.50;;;8.80;99.90;;;;;;5035551;28;20493;-81
2021/12/31 03:03:30;;;;;;;4.57;1.55;;;8.70;99.90;;;;;;5017728;28;20033;-81
2021/12/31 03:05:57;;;;;;;2.05;1.35;;;8.60;99.90;;;;;;5017440;28;20455;-81
2021/12/31 03:08:28;;;;;;;5.05;1.63;;;8.50;99.90;;;;;;5035328;28;20393;-82
2021/12/31 03:10:56;;;;;;;3.80;1.40;;;8.50;99.90;;;;;;5017698;28;20021;-82
2021/12/31 03:13:23;;;;;;;5.97;1.33;;;8.50;99.90;;;;;;5017557;28;20028;-82
2021/12/31 03:15:50;;;;;;;6.25;1.75;;;8.50;99.90;;;;;;5017475;28;20025;-81
2021/12/31 03:18:18;;;;;;;2.10;1.30;;;8.40;99.90;;;;;;5017492;28;20484;-82
2021/12/31 03:20:57;;;;;;;4.70;1.80;;;8.40;99.90;;;;;;5035214;28;20386;-82
2021/12/31 03:23:24;;;;;;;5.68;1.90;;;8.40;99.90;;;;;;5017433;28;20116;-81
2021/12/31 03:25:50;;;;;;;3.50;1.55;;;8.30;99.90;;;;;;5035132;28;20061;-81
2021/12/31 03:28:16;;;;;;;4.13;1.38;;;8.40;99.90;;;;;;5017128;28;20029;-81
2021/12/31 03:30:41;;;;;;;8.10;1.52;;;8.40;99.90;;;;;;5035572;28;20071;-81
2021/12/31 03:33:07;;;;;;;2.83;1.55;;;8.30;99.90;;;;;;5034994;28;20550;-81
2021/12/31 03:35:33;;;;;;;2.45;1.52;;;8.30;99.90;;;;;;5034950;28;20028;-82
2021/12/31 03:37:59;;;;;;;1.95;1.45;;;8.30;99.90;;;;;;5017200;28;20057;-81
2021/12/31 03:40:25;;;;;;;2.45;1.67;;;8.20;99.90;;;;;;5034885;28;20080;-81
2021/12/31 03:42:51;;;;;;;2.85;1.45;;;8.20;99.90;;;;;;5034780;28;20128;-82
2021/12/31 03:45:16;;;;;;;7.55;1.55;;;8.20;99.90;;;;;;5035055;28;20349;-82
2021/12/31 03:47:42;;;;;;;3.17;1.27;;;8.10;99.90;;;;;;5035195;28;20045;-82
2021/12/31 03:50:08;;;;;;;4.97;1.50;;;8.10;99.90;;;;;;5016865;28;20477;-82
2021/12/31 03:52:41;;;;;;;2.65;1.42;;;8.10;99.90;;;;;;5033938;28;20026;-82
2021/12/31 03:55:08;;;;;;;3.88;1.50;;;8.10;99.90;;;;;;5017343;28;20075;-82
2021/12/31 03:57:34;;;;;;;2.55;1.67;;;8.00;99.90;;;;;;5034488;28;20017;-82
2021/12/31 04:00:01;;;;;;;6.07;1.77;;;8.00;99.90;;;;;;5016672;28;20489;-81
2021/12/31 04:02:26;;;;;;;4.50;1.40;;;8.00;99.90;;;;;;5016643;28;20032;-81
2021/12/31 04:04:52;;;;;;;3.38;1.30;;;8.00;99.90;;;;;;5016563;28;20018;-81
2021/12/31 04:07:19;;;;;;;4.47;1.40;;;7.90;99.90;;;;;;5034126;28;20049;-81
2021/12/31 04:09:45;;;;;;;2.97;1.40;;;7.80;99.90;;;;;;5016439;28;20117;-81
2021/12/31 04:12:11;;;;;;;5.63;1.50;;;7.90;99.90;;;;;;5016492;28;20064;-81
2021/12/31 04:14:36;;;;;;;3.78;1.50;;;7.90;99.90;;;;;;5034171;28;20021;-81
2021/12/31 04:17:03;;;;;;;3.50;1.80;;;8.00;99.90;;;;;;5016448;28;20021;-81
2021/12/31 04:19:30;;;;;;;2.40;1.60;;;7.90;99.90;;;;;;5016434;28;20029;-81
2021/12/31 04:21:56;;;;;;;4.80;1.60;;;7.80;99.90;;;;;;5034342;28;20377;-82
2021/12/31 04:27:05;;;;;;;3.60;1.30;;;7.70;99.90;;;;;;5034566;28;20036;-81
2021/12/31 04:29:31;;;;;;;3.25;1.30;;;7.80;99.90;;;;;;5033800;28;20484;-81
2021/12/31 04:31:57;;;;;;;3.28;1.30;;;7.80;99.90;;;;;;5016176;28;20021;-82
2021/12/31 04:34:23;;;;;;;1.77;1.50;;;7.70;99.90;;;;;;5016089;28;20022;-81
2021/12/31 04:36:48;;;;;;;2.63;1.52;;;7.80;99.90;;;;;;5015975;28;20053;-81
2021/12/31 04:39:14;;;;;;;3.25;1.50;;;7.80;99.90;;;;;;5033965;28;20029;-81
2021/12/31 04:41:40;;;;;;;3.30;1.42;;;7.70;99.90;;;;;;5015965;28;20034;-81
2021/12/31 04:44:06;;;;;;;2.95;1.60;;;7.70;99.90;;;;;;5015924;28;20026;-81
2021/12/31 04:46:31;;;;;;;1.48;1.35;;;7.50;99.90;;;;;;5015931;28;20436;-81
2021/12/31 04:48:57;;;;;;;1.90;1.30;;;7.50;99.90;;;;;;5033488;28;20061;-81
2021/12/31 04:51:23;;;;;;;1.98;1.27;;;7.60;99.90;;;;;;5033585;28;20100;-81
2021/12/31 04:53:48;;;;;;;2.28;1.38;;;7.50;99.90;;;;;;5033508;28;20026;-81
2021/12/31 04:56:14;;;;;;;2.17;1.52;;;7.40;99.90;;;;;;5015748;28;20049;-81
2021/12/31 04:58:40;;;;;;;2.63;1.55;;;7.40;99.90;;;;;;5015758;28;20112;-82
2021/12/31 05:01:05;;;;;;;3.33;1.50;;;7.30;99.90;;;;;;5033383;28;20025;-81
2021/12/31 05:03:31;;;;;;;1.92;1.20;;;7.30;99.90;;;;;;5015816;28;20035;-82
2021/12/31 05:05:57;;;;;;;4.75;1.80;;;7.20;99.90;;;;;;5033296;28;20045;-81
2021/12/31 05:08:22;;;;;;;2.65;1.40;;;7.20;99.90;;;;;;5033732;28;20032;-81
2021/12/31 05:10:48;;;;;;;1.77;1.48;;;7.10;99.90;;;;;;5015547;28;20030;-81
2021/12/31 05:13:15;;;;;;;2.78;1.40;;;7.10;99.90;;;;;;5033755;28;20026;-81
2021/12/31 05:15:46;;;;;;;2.47;1.80;;;7.00;99.90;;;;;;5015653;28;20036;-81
2021/12/31 05:18:13;;;;;;;2.92;2.05;;;7.00;99.90;;;;;;5015372;28;20028;-81
2021/12/31 05:20:39;;;;;;;2.70;1.70;;;7.00;99.90;;;;;;5033441;28;20100;-81
2021/12/31 05:23:05;;;;;;;2.88;2.08;;;7.10;99.90;;;;;;5015417;28;20031;-81
2021/12/31 05:25:31;;;;;;;4.82;2.13;;;7.10;99.90;;;;;;5015402;28;20029;-82
2021/12/31 05:27:57;;;;;;;2.10;1.73;;;6.90;99.90;;;;;;5033029;28;20027;-81
2021/12/31 05:30:22;;;;;;;3.17;1.70;;;6.90;99.90;;;;;;5033026;28;20079;-81
2021/12/31 05:32:48;;;;;;;3.58;2.63;;;7.00;99.90;;;;;;5015302;28;20481;-81
2021/12/31 05:35:14;;;;;;;4.03;2.60;;;7.10;99.90;;;;;;5033284;28;20022;-81
2021/12/31 05:37:41;;;;;;;2.50;1.73;;;7.10;99.90;;;;;;5015315;28;20108;-81
2021/12/31 05:40:07;;;;;;;4.53;2.03;;;7.20;99.90;;;;;;5015226;28;20029;-81
2021/12/31 05:42:32;;;;;;;2.85;1.98;;;7.00;99.90;;;;;;5015271;28;20396;-81
2021/12/31 05:44:58;;;;;;;4.00;1.85;;;6.90;99.90;;;;;;5015162;28;20124;-81
2021/12/31 05:47:24;;;;;;;3.60;2.03;;;6.70;99.90;;;;;;5015159;28;20022;-81
2021/12/31 05:49:50;;;;;;;6.28;2.22;;;6.70;99.90;;;;;;5015614;28;20455;-81
2021/12/31 05:52:16;;;;;;;2.40;1.92;;;6.60;99.90;;;;;;5015123;28;20025;-81
2021/12/31 05:54:42;;;;;;;10.20;6.45;;;6.60;99.90;;;;;;5015019;28;20496;-81
2021/12/31 05:57:08;;;;;;;4.38;3.08;;;6.70;99.90;;;;;;5032793;28;20026;-81
2021/12/31 05:59:33;;;;;;;3.03;2.53;;;6.70;99.90;;;;;;5032782;28;20036;-82
2021/12/31 06:01:59;;;;;;;7.47;2.85;;;6.80;99.90;;;;;;5015073;28;20029;-81
2021/12/31 06:04:25;;;;;;;4.68;1.95;;;6.70;99.90;;;;;;5032687;28;20466;-81
2021/12/31 06:06:51;;;;;;;2.92;2.17;;;6.70;99.90;;;;;;5014752;28;20453;-81
2021/12/31 06:09:16;;;;;;;8.30;3.83;;;6.70;99.90;;;;;;5014970;28;20033;-81
2021/12/31 06:11:42;;;;;;;3.97;2.80;;;6.60;99.90;;;;;;5014887;28;20431;-81
2021/12/31 06:14:10;;;;;;;4.38;2.10;;;6.60;99.90;;;;;;5033162;28;20384;-82
2021/12/31 06:16:41;;;;;;;2.00;1.60;;;6.50;99.90;;;;;;5034393;28;20022;-81
2021/12/31 06:19:08;;;;;;;3.65;1.80;;;6.70;99.90;;;;;;5036361;28;20025;-81
2021/12/31 06:21:36;;;;;;;2.75;2.03;;;6.70;99.90;;;;;;5018538;28;20036;-81
2021/12/31 06:24:02;;;;;;;2.63;1.50;;;6.70;99.90;;;;;;5036493;28;20087;-81
2021/12/31 06:26:28;;;;;;;3.60;1.05;;;6.60;99.90;;;;;;5036213;28;20096;-81
2021/12/31 06:28:53;;;;;;;2.97;1.77;;;6.50;99.90;;;;;;5018325;28;20611;-81
2021/12/31 06:31:19;;;;;;;4.38;2.00;;;6.50;99.90;;;;;;5036114;28;20049;-81
2021/12/31 06:33:45;;;;;;;3.58;2.30;;;6.30;99.90;;;;;;5036101;28;20104;-82
2021/12/31 06:36:12;;;;;;;3.35;1.70;;;;;;;;;;5018242;28;20463;-82
2021/12/31 06:38:38;;;;;;;2.28;1.98;;;6.30;99.90;;;;;;5018271;28;20508;-82
2021/12/31 06:41:03;;;;;;;2.40;1.90;;;6.20;99.90;;;;;;5018196;28;20030;-81
2021/12/31 06:43:29;;;;;;;2.75;1.90;;;6.00;99.90;;;;;;5018101;28;20033;-81
2021/12/31 06:45:55;;;;;;;4.65;2.40;;;6.10;99.90;;;;;;5018089;28;20038;-81
2021/12/31 06:48:20;;;;;;;4.28;2.70;;;6.20;99.90;;;;;;5018003;28;20084;-81
2021/12/31 06:50:46;;;;;;;5.13;3.92;;;6.30;99.90;;;;;;5018044;28;20025;-81
2021/12/31 06:53:12;;;;;;;4.10;2.30;;;6.30;99.90;;;;;;5035725;28;20017;-81
2021/12/31 06:55:38;;;;;;;4.30;2.13;;;6.30;99.90;;;;;;5035641;28;20101;-82
2021/12/31 06:58:03;;;;;;;3.08;2.30;;;6.30;99.90;;;;;;5017860;28;20025;-81
2021/12/31 07:00:29;;;;;;;3.75;2.38;;;6.10;99.90;;;;;;5017798;28;20024;-81
2021/12/31 07:03:09;;;;;;;4.10;2.38;;;6.20;99.90;;;;;;5017762;28;20028;-82
2021/12/31 07:05:36;;;;;;;3.03;2.28;;;6.30;99.90;;;;;;5017524;28;20120;-81
2021/12/31 07:08:02;;;;;;;4.03;2.03;;;6.30;99.90;;;;;;5035368;28;20029;-81
2021/12/31 07:10:28;;;;;;;3.53;2.25;;;6.30;99.90;;;;;;5035651;28;20483;-81
2021/12/31 07:13:10;;;;;;;4.80;2.45;;;6.60;99.90;;;;;;5035386;28;20445;-81
2021/12/31 07:15:44;;;;;;;7.40;2.38;;;6.70;99.90;;;;;;5035404;28;20017;-82
2021/12/31 07:18:10;;;;;;;2.83;2.33;;;6.80;99.90;;;;;;5017514;28;20024;-82
2021/12/31 07:20:36;;;;;;;3.75;2.60;;;6.60;99.90;;;;;;5017422;28;20481;-81
2021/12/31 07:23:04;;;;;;;6.50;2.10;;;6.60;99.90;;;;;;5017379;28;20032;-81
2021/12/31 07:25:30;;;;;;;3.42;2.17;;;6.70;99.90;;;;;;5035115;28;20394;-81
2021/12/31 07:27:56;;;;;;;5.00;2.40;;;6.80;99.90;;;;;;5016209;28;20021;-81
2021/12/31 07:30:23;;;;;;;3.25;2.80;;;7.00;99.90;;;;;;5017277;28;20112;-81
2021/12/31 07:32:49;;;;;;;4.72;2.80;;;7.20;99.90;;;;;;5035244;28;20577;-82
2021/12/31 07:35:15;;;;;;;5.30;2.97;;;7.00;99.90;;;;;;5017159;28;20104;-81
2021/12/31 07:37:40;;;;;;;5.93;3.70;;;7.10;99.90;;;;;;5017077;28;20028;-81
2021/12/31 07:40:10;;;;;;;5.53;3.90;;;7.00;99.90;;;;;;5035073;28;20060;-81
2021/12/31 07:42:35;;;;;;;7.20;3.05;;;7.20;99.90;;;;;;5017051;28;20025;-82
2021/12/31 07:45:01;;;;;;;13.52;3.80;;;7.20;99.90;;;;;;5034778;28;20032;-81
2021/12/31 07:47:27;;;;;;;6.13;3.97;;;7.00;99.90;;;;;;5034950;28;20029;-81
2021/12/31 07:49:53;;;;;;;4.03;3.00;;;7.10;99.90;;;;;;5034618;28;20108;-81
2021/12/31 07:52:20;;;;;;;3.63;2.83;;;7.10;99.90;;;;;;5034818;28;20405;-82
2021/12/31 07:54:45;;;;;;;6.28;3.17;;;7.10;99.90;;;;;;5016728;28;20030;-82
2021/12/31 07:57:11;;;;;;;6.28;3.83;;;7.20;99.90;;;;;;5016739;28;20484;-81
2021/12/31 07:59:37;;;;;;;5.32;3.30;;;7.20;99.90;;;;;;5016690;28;20053;-82
2021/12/31 08:02:03;;;;;;;5.68;3.75;;;7.30;99.90;;;;;;5034416;28;20443;-81
2021/12/31 08:04:28;;;;;;;6.57;3.83;;;7.20;99.90;;;;;;5016580;28;20036;-81
2021/12/31 08:06:54;;;;;;;5.95;3.97;;;7.30;99.90;;;;;;5034047;28;20045;-81
2021/12/31 08:09:20;;;;;;;4.50;3.42;;;7.30;99.90;;;;;;5034501;28;20033;-82
2021/12/31 08:11:45;;;;;;;4.57;3.08;;;7.30;99.90;;;;;;5016536;28;20117;-81
2021/12/31 08:14:11;;;;;;;4.65;3.28;;;7.30;99.90;;;;;;5034241;28;20048;-81
2021/12/31 08:16:37;;;;;;;6.95;4.97;;;7.40;99.90;;;;;;5034396;28;20381;-81
2021/12/31 08:19:03;;;;;;;5.18;3.90;;;7.50;99.90;;;;;;5016363;28;20080;-82
2021/12/31 08:21:28;;;;;;;9.93;5.40;;;7.70;99.90;;;;;;5016324;28;20116;-81
2021/12/31 08:23:54;;;;;;;6.82;4.53;;;7.70;99.90;;;;;;5033922;28;20022;-82
2021/12/31 08:26:20;;;;;;;8.43;6.43;;;7.70;99.90;;;;;;5033897;28;20394;-81
2021/12/31 08:28:46;;;;;;;7.03;4.68;;;7.70;99.90;;;;;;5016047;28;20030;-81
2021/12/31 08:31:12;;;;;;;8.00;4.28;;;7.80;99.90;;;;;;5016002;28;20022;-82
2021/12/31 08:33:37;;;;;;;6.43;4.18;;;7.80;99.90;;;;;;5033804;28;20397;-81
2021/12/31 08:36:03;;;;;;;7.50;4.88;;;7.70;99.90;;;;;;5034018;28;20087;-82
2021/12/31 08:38:29;;;;;;;10.38;5.75;;;7.80;99.90;;;;;;5015614;28;20485;-81
2021/12/31 08:40:57;;;;;;;8.77;5.53;;;7.90;99.90;;;;;;5033663;28;20021;-81
2021/12/31 08:43:23;;;;;;;8.40;5.28;;;7.90;99.90;;;;;;5033574;28;20052;-81
2021/12/31 08:45:49;;;;;;;8.35;5.40;;;7.90;99.90;;;;;;5015824;28;20057;-81
2021/12/31 08:48:14;;;;;;;7.38;4.70;;;7.90;99.90;;;;;;5015764;28;20029;-81
2021/12/31 08:50:40;;;;;;;6.25;4.50;;;7.90;99.90;;;;;;5033772;28;20022;-81
2021/12/31 08:53:06;;;;;;;7.03;4.63;;;7.90;99.90;;;;;;5015849;28;20393;-85
2021/12/31 08:55:32;;;;;;;9.52;6.15;;;8.00;99.90;;;;;;5033483;28;20392;-84
2021/12/31 08:57:58;;;;;;;8.10;5.85;;;8.10;99.90;;;;;;5015990;28;20044;-85
2021/12/31 09:00:23;;;;;;;10.60;6.10;;;8.20;99.90;;;;;;5015849;28;20018;-85
2021/12/31 09:02:50;;;;;;;14.13;6.80;;;8.30;99.90;;;;;;5015824;28;20044;-85
2021/12/31 09:05:16;;;;;;;12.70;6.60;;;8.30;99.90;;;;;;5015500;28;20032;-85
2021/12/31 09:07:43;;;;;;;10.73;7.00;;;8.40;99.90;;;;;;5015680;28;20060;-84
2021/12/31 09:10:09;;;;;;;13.05;7.13;;;8.40;99.90;;;;;;5015674;28;20032;-85
2021/12/31 09:12:38;;;;;;;15.85;7.47;;;8.40;99.90;;;;;;5015571;28;20374;-84
2021/12/31 09:15:05;;;;;;;24.23;7.15;;;8.50;99.90;;;;;;5015622;28;20035;-83
2021/12/31 09:17:31;;;;;;;21.58;7.28;;;8.40;99.90;;;;;;5033139;28;20029;-78
2021/12/31 09:19:57;;;;;;;18.20;7.50;;;8.40;99.90;;;;;;5015542;28;20037;-85
2021/12/31 09:22:23;;;;;;;15.30;6.95;;;8.40;99.90;;;;;;5033124;28;20083;-85
2021/12/31 09:24:49;;;;;;;16.08;6.35;;;8.40;99.90;;;;;;5033216;28;20083;-85
2021/12/31 09:27:15;;;;;;;14.88;6.63;;;8.50;99.90;;;;;;5033175;28;20469;-85
2021/12/31 09:29:41;;;;;;;23.02;6.18;;;8.50;99.90;;;;;;5015511;28;20037;-85
2021/12/31 09:32:07;;;;;;;16.42;7.15;;;8.50;99.90;;;;;;5033376;28;20021;-85
2021/12/31 09:34:33;;;;;;;13.10;6.45;;;8.60;99.90;;;;;;5015441;28;20061;-85
2021/12/31 09:36:59;;;;;;;13.45;7.00;;;8.60;99.90;;;;;;5015649;28;20026;-85
2021/12/31 09:39:25;;;;;;;10.90;6.85;;;8.60;99.90;;;;;;5033504;28;20596;-85
2021/12/31 09:41:50;;;;;;;9.73;6.70;;;8.70;99.90;;;;;;5033257;28;20025;-85
2021/12/31 09:44:20;;;;;;;22.27;7.75;;;8.70;99.90;;;;;;5015586;28;20025;-85
2021/12/31 09:46:45;;;;;;;11.70;8.68;;;8.80;99.90;;;;;;5015516;28;20409;-85
2021/12/31 09:49:11;;;;;;;17.15;9.65;;;8.60;99.90;;;;;;5015193;28;20032;-85
2021/12/31 09:51:42;;;;;;;42.00;8.77;;;8.60;99.90;;;;;;5017425;28;20026;-86
2021/12/31 09:54:08;;;;;;;34.67;9.48;;;8.70;99.90;;;;;;5019272;28;20389;-85
2021/12/31 09:56:39;;;;;;;13.55;9.05;;;8.70;99.90;;;;;;5019049;28;20392;-85
2021/12/31 09:59:05;;;;;;;34.97;10.02;;;8.70;99.90;;;;;;5019288;28;20021;-83
2021/12/31 10:01:31;;;;;;;13.55;9.38;;;8.70;99.90;;;;;;5019085;28;20036;-84
2021/12/31 10:04:00;;;;;;;19.00;10.48;;;8.70;99.90;;;;;;5036939;28;20492;-85
2021/12/31 10:06:26;;;;;;;26.23;10.90;;;8.80;99.90;;;;;;5018882;28;20481;-85
2021/12/31 10:08:56;;;;;;;15.35;9.95;;;8.80;99.90;;;;;;5036613;28;20047;-85
2021/12/31 10:11:24;;;;;;;15.68;10.70;;;8.80;99.90;;;;;;5018907;28;20017;-85
2021/12/31 10:13:56;;;;;;;21.90;11.10;;;8.80;99.90;;;;;;5036623;28;20052;-85
2021/12/31 10:16:30;;;;;;;15.02;10.10;;;8.90;99.90;;;;;;5019363;28;20029;-85
2021/12/31 10:19:11;;;;;;;14.18;10.27;;;9.00;99.90;;;;;;5018998;28;20028;-85
2021/12/31 10:21:42;;;;;;;16.52;11.23;;;9.10;99.90;;;;;;5018727;28;20025;-83
2021/12/31 10:24:36;;;;;;;17.33;11.00;;;9.10;99.90;;;;;;5018637;28;20488;-84
2021/12/31 10:27:14;;;;;;;18.58;11.10;;;9.20;99.90;;;;;;5018680;28;20168;-85
2021/12/31 10:29:53;;;;;;;18.88;11.82;;;9.20;99.90;;;;;;5018610;28;20036;-85
2021/12/31 10:32:19;;;;;;;17.77;12.15;;;9.30;99.90;;;;;;5036528;28;20385;-85
2021/12/31 10:34:45;;;;;;;15.82;10.88;;;9.40;99.90;;;;;;5036251;28;20465;-85
2021/12/31 10:37:16;;;;;;;14.95;10.70;;;9.40;99.90;;;;;;5018436;28;20026;-85
2021/12/31 10:39:44;;;;;;;15.40;11.40;;;9.40;99.90;;;;;;5018315;28;20029;-84
2021/12/31 10:42:12;;;;;;;16.70;11.80;;;9.40;99.90;;;;;;5018393;28;20025;-85
2021/12/31 10:44:48;;;;;;;15.75;10.88;;;9.40;99.90;;;;;;5036071;28;20479;-85
2021/12/31 10:47:23;;;;;;;17.10;11.80;;;9.40;99.90;;;;;;5019381;28;20087;-84
2021/12/31 10:50:00;;;;;;;17.13;11.50;;;9.40;99.90;;;;;;5036121;28;20103;-85
2021/12/31 10:52:39;;;;;;;14.38;10.68;;;9.50;99.90;;;;;;5035910;28;20018;-85
2021/12/31 10:55:24;;;;;;;12.70;9.23;;;9.60;99.90;;;;;;5035992;28;20428;-85
2021/12/31 10:57:57;;;;;;;12.88;9.25;;;9.50;99.90;;;;;;5035854;28;20100;-85
2021/12/31 11:00:25;;;;;;;15.47;11.03;;;9.60;99.90;;;;;;5018259;28;20068;-85
2021/12/31 11:02:51;;;;;;;16.73;11.80;;;9.60;99.90;;;;;;5035724;28;20034;-85
2021/12/31 11:05:20;;;;;;;16.63;11.85;;;9.70;99.90;;;;;;5017683;28;20138;-85
2021/12/31 11:07:46;;;;;;;13.90;10.48;;;9.70;99.90;;;;;;5017715;28;20025;-85
2021/12/31 11:10:14;;;;;;;12.75;9.82;;;9.80;99.90;;;;;;5035645;28;20105;-85
2021/12/31 11:12:43;;;;;;;14.82;10.20;;;9.80;99.90;;;;;;5017710;28;20022;-85
2021/12/31 11:15:09;;;;;;;16.70;10.38;;;9.90;99.90;;;;;;5017880;28;20029;-85
2021/12/31 11:17:36;;;;;;;14.15;10.48;;;10.00;99.90;;;;;;5035564;28;20101;-85
2021/12/31 11:20:04;;;;;;;11.63;9.23;;;9.90;99.90;;;;;;5035973;28;20040;-85
2021/12/31 11:22:31;;;;;;;13.25;9.50;;;10.00;99.90;;;;;;5035966;28;20382;-85
2021/12/31 11:25:23;;;;;;;11.50;9.00;;;10.40;99.90;;;;;;5035795;28;20033;-85
2021/12/31 11:27:51;;;;;;;12.50;9.45;;;10.40;99.90;;;;;;5018140;28;20074;-85
2021/12/31 11:30:34;;;;;;;10.88;8.38;;;10.40;99.90;;;;;;5017696;28;20064;-84
2021/12/31 11:33:06;;;;;;;13.05;9.20;;;10.40;99.90;;;;;;5035792;28;20496;-85
2021/12/31 11:35:50;;;;;;;12.25;8.52;;;10.40;99.90;;;;;;5017711;28;20402;-84
2021/12/31 11:38:45;;;;;;;12.43;8.50;;;10.50;99.90;;;;;;5017660;28;20092;-85
2021/12/31 11:41:20;;;;;;;11.07;8.10;;;10.60;99.90;;;;;;5035623;28;20052;-85
2021/12/31 11:44:09;;;;;;;10.90;7.80;;;10.60;99.90;;;;;;5017635;28;20033;-85
2021/12/31 11:46:42;;;;;;;11.63;8.55;;;10.60;99.90;;;;;;5035270;28;20097;-85
2021/12/31 11:49:20;;;;;;;10.32;8.05;;;10.70;99.90;;;;;;5017829;28;20083;-85
2021/12/31 11:52:06;;;;;;;8.80;7.20;;;10.90;99.90;;;;;;5017513;28;20071;-85
2021/12/31 11:54:33;;;;;;;9.30;6.85;;;11.10;99.90;;;;;;5017263;28;20112;-84
2021/12/31 11:57:00;;;;;;;8.60;7.13;;;11.50;99.90;;;;;;5035196;28;20026;-84
2021/12/31 11:59:31;;;;;;;9.25;5.85;;;12.00;99.90;;;;;;5017321;28;20025;-84
2021/12/31 12:02:09;;;;;;;7.82;6.15;;;12.20;99.90;;;;;;5017382;28;20485;-84
2021/12/31 12:04:40;;;;;;;6.60;5.82;;;12.40;99.90;;;;;;5017356;28;20029;-84
2021/12/31 12:07:25;;;;;;;7.28;5.82;;;12.50;99.90;;;;;;5034730;28;20049;-85
2021/12/31 12:09:51;;;;;;;7.82;4.80;;;12.60;99.90;;;;;;5034681;28;20033;-84
2021/12/31 12:12:23;;;;;;;6.82;5.15;;;12.90;99.90;;;;;;5016810;28;20116;-85
2021/12/31 12:15:23;;;;;;;5.30;4.57;;;13.10;99.90;;;;;;5016514;28;20060;-84
2021/12/31 12:17:49;;;;;;;6.03;4.13;;;13.70;99.90;;;;;;5016840;28;20040;-85
2021/12/31 12:20:19;;;;;;;6.63;4.20;;;14.10;99.90;;;;;;5034574;28;20026;-85
2021/12/31 12:22:53;;;;;;;4.93;3.78;;;;;;;;;;5034691;28;20025;-85
2021/12/31 12:25:24;;;;;;;4.20;3.60;;;14.90;99.90;;;;;;5016874;28;20024;-85
2021/12/31 12:27:53;;;;;;;4.72;3.70;;;14.60;99.90;;;;;;5016883;28;20025;-85
2021/12/31 12:30:20;;;;;;;3.85;3.13;;;14.70;99.90;;;;;;5016702;28;20034;-85
2021/12/31 12:35:27;;;;;;;3.75;2.70;;;16.30;99.90;;;;;;5034540;28;20112;-85
2021/12/31 12:37:58;;;;;;;3.45;2.67;;;17.20;99.90;;;;;;5016471;28;20472;-85
2021/12/31 12:40:42;;;;;;;4.38;2.25;;;18.00;99.90;;;;;;5034368;28;20108;-84
2021/12/31 12:43:18;;;;;;;3.20;2.50;;;18.40;99.90;;;;;;5034113;28;20474;-85
2021/12/31 12:45:51;;;;;;;3.83;2.38;;;17.20;99.90;;;;;;5016262;28;20769;-84
2021/12/31 12:48:28;;;;;;;3.25;2.42;;;16.40;99.90;;;;;;5034302;28;20472;-85
2021/12/31 12:50:53;;;;;;;2.92;2.40;;;15.60;99.90;;;;;;5016806;28;20025;-84
2021/12/31 12:53:22;;;;;;;5.88;2.08;;;14.90;99.90;;;;;;5034336;28;20075;-83
2021/12/31 12:55:48;;;;;;;2.95;2.30;;;14.40;99.90;;;;;;5033742;28;20136;-85
2021/12/31 12:58:22;;;;;;;2.30;1.95;;;14.00;99.90;;;;;;5016482;28;20026;-85
2021/12/31 13:00:54;;;;;;;2.30;2.10;;;13.70;99.90;;;;;;5033870;28;20496;-84
2021/12/31 13:03:19;;;;;;;3.22;2.78;;;13.40;99.90;;;;;;5034501;28;20025;-85
2021/12/31 13:05:45;;;;;;;3.28;2.65;;;13.20;99.90;;;;;;5015942;28;20044;-84